King of Scandinavia — OVOL2 — position and weather

sailwx.info

Track history (hours):
 
Tides and Currents Weather Stations Pressure Air Temp Water Temp Dewpoint Dewpoint Depression Visibility Wind Speed Wind Dir Waves Ship Positions

King of Scandinavia

Ship's website: http://www.dfds.co.uk/DSW/EN/OnBoard/na/KING.htm

Last reported at 2017-Jul-22 17:45 UTC. Time now 2017-Jul-22 18:28 UTC.
Position N 52°50' E 003°52'.

Length 166 m; beam 27.6 m; draft 6.2 m.

Type: Ship. MMSI: 220449000.

Date/timePositionNaut miles runAvg speedWind from/ knotsBaromVisibWave heightAir tempDewpointWater temp
2017-Jul-22 17:45N 52°50' E 003°52'415.1
2017-Jul-22 17:30N 52°48' E 003°57'815.5
2017-Jul-22 17:00N 52°43' E 004°07'815.9
2017-Jul-22 16:30N 52°37' E 004°16'816.2
2017-Jul-22 16:00N 52°31' E 004°26'612.9
2017-Jul-22 15:30N 52°28' E 004°34'0 0.7
2017-Jul-22 15:00N 52°28' E 004°35'0 0.0
2017-Jul-22 13:59N 52°28' E 004°35'0 0.0
2017-Jul-22 13:29N 52°28' E 004°35'0 0.0
2017-Jul-22 12:59N 52°28' E 004°35'0 0.0
2017-Jul-22 12:29N 52°28' E 004°35'0 0.0
2017-Jul-22 11:59N 52°28' E 004°35'0 0.0
2017-Jul-22 11:29N 52°28' E 004°35'0 0.0
2017-Jul-22 10:59N 52°28' E 004°35'0 0.0
2017-Jul-22 10:29N 52°28' E 004°35'0 0.0
2017-Jul-22 09:59N 52°28' E 004°35'0 0.0
2017-Jul-22 09:29N 52°28' E 004°35'0 0.0
2017-Jul-22 08:59N 52°28' E 004°35'0 0.0
2017-Jul-22 08:29N 52°28' E 004°35'0 0.0
2017-Jul-22 07:59N 52°28' E 004°35'0 0.3
2017-Jul-22 07:31N 52°28' E 004°35'511.0
2017-Jul-22 07:00N 52°30' E 004°26'816.5
2017-Jul-22 06:30N 52°36' E 004°17'917.5
2017-Jul-22 06:00N 52°42' E 004°07'816.6
2017-Jul-22 05:30N 52°47' E 003°56'917.7
2017-Jul-22 05:00N 52°52' E 003°44'918.9
2017-Jul-22 04:30N 52°59' E 003°34'1019.0
2017-Jul-22 04:00N 53°05' E 003°21'6018.0
2017-Jul-22 00:41N 53°44' E 002°05'317.5
2017-Jul-22 00:30N 53°46' E 002°01'1017.5
2017-Jul-21 23:55N 53°51' E 001°46'817.4
2017-Jul-21 23:28N 53°55' E 001°35'1117.2
2017-Jul-21 22:51N 54°01' E 001°19'616.9
2017-Jul-21 22:30N 54°04' E 001°11'816.9
2017-Jul-21 22:00N 54°09' E 000°59'816.9
2017-Jul-21 21:30N 54°13' E 000°47'816.9
2017-Jul-21 21:00N 54°18' E 000°35'917.1
2017-Jul-21 20:30N 54°22' E 000°23'816.9
2017-Jul-21 20:00N 54°27' E 000°10'816.9
2017-Jul-21 19:30N 54°32' W 000°02'917.1
2017-Jul-21 19:00N 54°36' W 000°14'917.3
2017-Jul-21 18:30N 54°41' W 000°27'1017.7
2017-Jul-21 17:56N 54°46' W 000°42'818.0
2017-Jul-21 17:30N 54°50' W 000°53'918.2
2017-Jul-21 17:00N 54°55' W 001°07'918.1
2017-Jul-21 16:30N 54°60' W 001°20'4 7.8
2017-Jul-21 16:01N 54°59' W 001°27'0 0.2
2017-Jul-21 15:30N 54°59' W 001°27'0 0.0
2017-Jul-21 14:59N 54°59' W 001°27'0 0.0
2017-Jul-21 14:29N 54°59' W 001°27'0 0.0
2017-Jul-21 13:56N 54°59' W 001°27'0 0.0
2017-Jul-21 13:29N 54°59' W 001°27'0 0.0
2017-Jul-21 12:59N 54°59' W 001°27'0 0.0
2017-Jul-21 12:29N 54°59' W 001°27'0 0.0
2017-Jul-21 11:59N 54°59' W 001°27'0 0.0
2017-Jul-21 11:26N 54°59' W 001°27'0 0.0
2017-Jul-21 10:59N 54°59' W 001°27'0 0.0
2017-Jul-21 10:29N 54°59' W 001°27'0 0.0
2017-Jul-21 09:59N 54°59' W 001°27'0 0.0
2017-Jul-21 09:30N 54°59' W 001°27'0 0.0
2017-Jul-21 08:59N 54°59' W 001°27'0 0.0
2017-Jul-21 08:31N 54°59' W 001°27'0 0.1
2017-Jul-21 08:00N 54°59' W 001°27'4 8.0
2017-Jul-21 07:31N 55°00' W 001°20'714.9
2017-Jul-21 07:01N 54°56' W 001°10'815.2
2017-Jul-21 06:30N 54°51' W 000°59'815.9
2017-Jul-21 06:00N 54°47' W 000°47'1517.5
2017-Jul-21 05:07N 54°39' W 000°24'317.3
2017-Jul-21 04:58N 54°38' W 000°20'817.0
2017-Jul-21 04:30N 54°34' W 000°09'817.0
2017-Jul-21 04:00N 54°29' E 000°04'917.1
2017-Jul-21 03:30N 54°25' E 000°16'917.3
2017-Jul-21 03:00N 54°20' E 000°29'917.1
2017-Jul-21 02:30N 54°15' E 000°41'1117.0
2017-Jul-21 01:50N 54°09' E 000°57'15017.2
2017-Jul-20 17:05N 52°37' E 004°16'114.2
2017-Jul-20 17:00N 52°36' E 004°17'714.5
2017-Jul-20 16:30N 52°31' E 004°26'612.5
2017-Jul-20 16:00N 52°28' E 004°35'0 0.4
2017-Jul-20 15:30N 52°28' E 004°35'0 0.0
2017-Jul-20 15:00N 52°28' E 004°35'0 0.0
2017-Jul-20 13:58N 52°28' E 004°35'0 0.0
2017-Jul-20 13:28N 52°28' E 004°35'0 0.0
2017-Jul-20 12:58N 52°28' E 004°35'0 0.0
2017-Jul-20 12:28N 52°28' E 004°35'0 0.0
2017-Jul-20 11:55N 52°28' E 004°35'0 0.0
2017-Jul-20 11:25N 52°28' E 004°35'0 0.0
2017-Jul-20 10:58N 52°28' E 004°35'0 0.0
2017-Jul-20 10:28N 52°28' E 004°35'0 0.0
2017-Jul-20 09:58N 52°28' E 004°35'0 0.0
2017-Jul-20 09:28N 52°28' E 004°35'0 0.0
2017-Jul-20 08:58N 52°28' E 004°35'0 0.0
2017-Jul-20 08:25N 52°28' E 004°35'0 0.0
2017-Jul-20 07:55N 52°28' E 004°35'0 0.4
2017-Jul-20 07:30N 52°28' E 004°35'4 8.3
2017-Jul-20 07:00N 52°29' E 004°28'713.3
2017-Jul-20 06:30N 52°34' E 004°20'713.4
2017-Jul-20 06:00N 52°38' E 004°12'713.8
2017-Jul-20 05:29N 52°43' E 004°03'714.7
2017-Jul-20 05:00N 52°47' E 003°54'814.9
2017-Jul-20 04:28N 52°53' E 003°45'1015.1
2017-Jul-20 03:48N 52°60' E 003°33'13518.6
2017-Jul-19 20:33N 54°20' E 000°29'118.0
2017-Jul-19 20:29N 54°20' E 000°28'918.2
2017-Jul-19 20:00N 54°25' E 000°15'918.0
2017-Jul-19 19:30N 54°30' E 000°02'918.1
2017-Jul-19 19:00N 54°35' W 000°11'918.0
2017-Jul-19 18:30N 54°39' W 000°25'1618.0
2017-Jul-19 17:38N 54°48' W 000°48'218.1
2017-Jul-19 17:30N 54°49' W 000°51'918.2
2017-Jul-19 17:00N 54°54' W 001°04'918.2
2017-Jul-19 16:30N 54°59' W 001°18'510.7
2017-Jul-19 16:00N 54°60' W 001°27'1 1.0
2017-Jul-19 15:25N 54°59' W 001°27'0 0.0
2017-Jul-19 14:52N 54°59' W 001°27'0 0.0
2017-Jul-19 14:25N 54°59' W 001°27'0 0.0
2017-Jul-19 13:40N 54°59' W 001°27'0 0.0
2017-Jul-19 13:28N 54°59' W 001°27'0 0.0
2017-Jul-19 12:58N 54°59' W 001°27'0 0.0
2017-Jul-19 12:28N 54°59' W 001°27'0 0.0
2017-Jul-19 11:58N 54°59' W 001°27'0 0.0
2017-Jul-19 11:28N 54°59' W 001°27'0 0.0
2017-Jul-19 10:58N 54°59' W 001°27'0 0.0
2017-Jul-19 10:28N 54°59' W 001°27'0 0.0
2017-Jul-19 10:01N 54°59' W 001°27'0 0.0
2017-Jul-19 09:31N 54°59' W 001°27'0 0.0
2017-Jul-19 09:01N 54°59' W 001°27'0 0.0
2017-Jul-19 08:30N 54°59' W 001°27'1 1.6
2017-Jul-19 08:00N 55°00' W 001°27'713.1
2017-Jul-19 07:31N 54°59' W 001°16'917.3
2017-Jul-19 07:01N 54°54' W 001°03'917.5
2017-Jul-19 06:31N 54°49' W 000°50'2217.8
2017-Jul-19 05:16N 54°37' W 000°17'517.9
2017-Jul-19 05:00N 54°35' W 000°11'918.1
2017-Jul-19 04:30N 54°30' E 000°02'918.2
2017-Jul-19 04:01N 54°25' E 000°15'918.3
2017-Jul-19 03:30N 54°20' E 000°29'12916.3
2017-Jul-18 19:35N 53°04' E 003°24'216.0
2017-Jul-18 19:29N 53°03' E 003°26'715.9
2017-Jul-18 19:01N 52°58' E 003°35'815.6
2017-Jul-18 18:30N 52°52' E 003°45'815.4
2017-Jul-18 18:00N 52°47' E 003°55'815.2
2017-Jul-18 17:30N 52°43' E 004°04'815.3
2017-Jul-18 17:01N 52°38' E 004°14'815.1
2017-Jul-18 16:31N 52°32' E 004°23'714.6
2017-Jul-18 16:01N 52°28' E 004°32'2 3.3
2017-Jul-18 15:30N 52°28' E 004°35'0 0.0
2017-Jul-18 15:00N 52°28' E 004°35'0 0.0
2017-Jul-18 14:00N 52°28' E 004°35'0 0.0
2017-Jul-18 13:00N 52°28' E 004°35'0 0.0
2017-Jul-18 12:30N 52°28' E 004°35'0 0.0
2017-Jul-18 12:00N 52°28' E 004°35'0 0.0
2017-Jul-18 11:30N 52°28' E 004°35'0 0.0
2017-Jul-18 11:00N 52°28' E 004°35'0 0.0
2017-Jul-18 10:30N 52°28' E 004°35'0 0.0
2017-Jul-18 09:57N 52°28' E 004°35'0 0.0
2017-Jul-18 09:30N 52°28' E 004°35'0 0.0
2017-Jul-18 08:57N 52°28' E 004°35'0 0.0
2017-Jul-18 08:30N 52°28' E 004°35'0 0.0
2017-Jul-18 08:00N 52°28' E 004°35'0 0.4
2017-Jul-18 07:31N 52°28' E 004°35'611.7
2017-Jul-18 07:00N 52°30' E 004°26'714.8
2017-Jul-18 06:30N 52°35' E 004°18'714.4
2017-Jul-18 06:00N 52°40' E 004°08'815.2
2017-Jul-18 05:30N 52°45' E 003°59'815.5
2017-Jul-18 05:00N 52°51' E 003°50'815.5
2017-Jul-18 04:30N 52°55' E 003°40'815.9
2017-Jul-18 04:00N 53°00' E 003°30'917.7
2017-Jul-18 03:30N 53°06' E 003°19'1017.9
2017-Jul-18 02:56N 53°13' E 003°05'818.2
2017-Jul-18 02:29N 53°18' E 002°55'918.3
2017-Jul-18 01:58N 53°24' E 002°43'1418.6
2017-Jul-18 01:13N 53°34' E 002°25'418.7
2017-Jul-18 01:00N 53°36' E 002°20'1018.6
2017-Jul-18 00:29N 53°42' E 002°08'1018.6
2017-Jul-17 23:57N 53°48' E 001°54'818.5
2017-Jul-17 23:29N 53°52' E 001°42'1218.4
2017-Jul-17 22:51N 53°59' E 001°25'618.2
2017-Jul-17 22:31N 54°02' E 001°16'917.9
2017-Jul-17 22:00N 54°07' E 001°03'1117.8
2017-Jul-17 21:23N 54°13' E 000°47'718.0
2017-Jul-17 21:01N 54°17' E 000°38'917.8
2017-Jul-17 20:30N 54°21' E 000°25'917.8
2017-Jul-17 20:00N 54°26' E 000°12'917.7
2017-Jul-17 19:30N 54°31' W 000°01'917.7
2017-Jul-17 19:00N 54°36' W 000°13'917.5
2017-Jul-17 18:30N 54°41' W 000°26'1117.3
2017-Jul-17 17:53N 54°47' W 000°42'717.2
2017-Jul-17 17:30N 54°50' W 000°52'917.1
2017-Jul-17 17:00N 54°54' W 001°04'917.2
2017-Jul-17 16:30N 54°59' W 001°17'510.9
2017-Jul-17 16:00N 54°60' W 001°27'0 0.7
2017-Jul-17 15:23N 54°59' W 001°27'0 0.0
2017-Jul-17 14:53N 54°59' W 001°27'0 0.0
2017-Jul-17 14:20N 54°59' W 001°27'0 0.0
2017-Jul-17 13:56N 54°59' W 001°27'0 0.0
2017-Jul-17 13:23N 54°59' W 001°27'0 0.0
2017-Jul-17 12:56N 54°59' W 001°27'0 0.0
2017-Jul-17 12:26N 54°59' W 001°27'0 0.0
2017-Jul-17 11:56N 54°59' W 001°27'0 0.0
2017-Jul-17 11:26N 54°59' W 001°27'0 0.0
2017-Jul-17 10:59N 54°59' W 001°27'0 0.0
2017-Jul-17 10:29N 54°59' W 001°27'0 0.0
2017-Jul-17 09:59N 54°59' W 001°27'0 0.0
2017-Jul-17 09:30N 54°59' W 001°27'0 0.0
2017-Jul-17 09:00N 54°59' W 001°27'0 0.0
2017-Jul-17 08:29N 54°59' W 001°27'0 0.6
2017-Jul-17 08:00N 54°60' W 001°27'5 9.6
2017-Jul-17 07:31N 54°60' W 001°18'816.0
2017-Jul-17 07:01N 54°55' W 001°07'816.3
2017-Jul-17 06:30N 54°52' W 000°54'816.3
2017-Jul-17 06:01N 54°47' W 000°42'1316.6
2017-Jul-17 05:12N 54°39' W 000°23'416.1
2017-Jul-17 04:58N 54°37' W 000°18'817.5
2017-Jul-17 04:31N 54°33' W 000°06'917.9
2017-Jul-17 04:01N 54°28' E 000°07'918.3
2017-Jul-17 03:31N 54°23' E 000°20'918.1
2017-Jul-17 03:00N 54°18' E 000°33'918.2
2017-Jul-17 02:31N 54°14' E 000°46'917.6
2017-Jul-17 02:01N 54°09' E 000°59'4516.8
2017-Jul-16 23:18N 53°44' E 002°04'3316.8
2017-Jul-16 21:22N 53°23' E 002°46'5115.9
2017-Jul-16 18:08N 52°50' E 003°51'215.7
2017-Jul-16 18:00N 52°48' E 003°53'815.4
2017-Jul-16 17:30N 52°43' E 004°02'815.5
2017-Jul-16 17:00N 52°38' E 004°12'815.4
2017-Jul-16 16:30N 52°33' E 004°22'815.1
2017-Jul-16 16:01N 52°28' E 004°31'2 4.9
2017-Jul-16 15:31N 52°28' E 004°35'0 0.0
2017-Jul-16 15:01N 52°28' E 004°35'0 0.0
2017-Jul-16 14:28N 52°28' E 004°35'0 0.0
2017-Jul-16 14:01N 52°28' E 004°35'0 0.0
2017-Jul-16 13:31N 52°28' E 004°35'0 0.0
2017-Jul-16 12:58N 52°28' E 004°35'0 0.0
2017-Jul-16 12:28N 52°28' E 004°35'0 0.0
2017-Jul-16 11:58N 52°28' E 004°35'0 0.0
2017-Jul-16 11:28N 52°28' E 004°35'0 0.0
2017-Jul-16 10:58N 52°28' E 004°35'0 0.0
2017-Jul-16 10:31N 52°28' E 004°35'0 0.0
2017-Jul-16 09:58N 52°28' E 004°35'0 0.0
2017-Jul-16 09:28N 52°28' E 004°35'0 0.0
2017-Jul-16 08:58N 52°28' E 004°35'0 0.0
2017-Jul-16 08:31N 52°28' E 004°35'0 0.0
2017-Jul-16 08:01N 52°28' E 004°35'0 0.2
2017-Jul-16 07:30N 52°28' E 004°35'5 9.4
2017-Jul-16 07:00N 52°29' E 004°27'714.3
2017-Jul-16 06:30N 52°34' E 004°20'714.5
2017-Jul-16 06:00N 52°40' E 004°11'714.9
2017-Jul-16 05:30N 52°44' E 004°02'815.1
2017-Jul-16 05:00N 52°49' E 003°52'14617.7
2017-Jul-15 20:44N 54°17' E 000°35'418.6
2017-Jul-15 20:30N 54°19' E 000°29'918.6
2017-Jul-15 20:00N 54°24' E 000°16'918.7
2017-Jul-15 19:30N 54°29' E 000°02'918.6
2017-Jul-15 19:00N 54°34' W 000°11'918.5
2017-Jul-15 18:30N 54°40' W 000°25'1618.2
2017-Jul-15 17:38N 54°48' W 000°48'217.8
2017-Jul-15 17:30N 54°49' W 000°52'917.8
2017-Jul-15 17:00N 54°54' W 001°04'917.9
2017-Jul-15 16:31N 54°59' W 001°17'510.9
2017-Jul-15 16:00N 54°60' W 001°27'0 0.8
2017-Jul-15 15:30N 54°59' W 001°27'0 0.0
2017-Jul-15 15:00N 54°59' W 001°27'0 0.0
2017-Jul-15 13:52N 54°59' W 001°27'0 0.0
2017-Jul-15 13:21N 54°59' W 001°27'0 0.0
2017-Jul-15 12:54N 54°59' W 001°27'0 0.0
2017-Jul-15 12:24N 54°59' W 001°27'0 0.0
2017-Jul-15 11:54N 54°59' W 001°27'0 0.0
2017-Jul-15 11:24N 54°59' W 001°27'0 0.0
2017-Jul-15 10:57N 54°59' W 001°27'0 0.0
2017-Jul-15 10:27N 54°59' W 001°27'0 0.0
2017-Jul-15 09:57N 54°59' W 001°27'0 0.0
2017-Jul-15 09:27N 54°59' W 001°27'0 0.0
2017-Jul-15 08:54N 54°59' W 001°27'0 0.0
2017-Jul-15 08:30N 54°59' W 001°27'0 0.7
2017-Jul-15 08:00N 54°60' W 001°27'5 9.3
2017-Jul-15 07:30N 54°60' W 001°19'917.3
2017-Jul-15 07:00N 54°55' W 001°05'917.2
2017-Jul-15 06:30N 54°51' W 000°53'917.1
2017-Jul-15 06:00N 54°46' W 000°41'1317.1
2017-Jul-15 05:14N 54°38' W 000°22'417.3
2017-Jul-15 05:00N 54°36' W 000°16'917.5
2017-Jul-15 04:29N 54°31' W 000°03'817.8
2017-Jul-15 04:00N 54°27' E 000°09'917.9
2017-Jul-15 03:30N 54°22' E 000°22'918.0
2017-Jul-15 03:00N 54°18' E 000°36'14917.0
2017-Jul-14 18:14N 52°49' E 003°57'314.6
2017-Jul-14 18:00N 52°46' E 004°01'714.7
2017-Jul-14 17:30N 52°41' E 004°09'714.5
2017-Jul-14 17:01N 52°36' E 004°17'714.4
2017-Jul-14 16:30N 52°31' E 004°26'612.2
2017-Jul-14 16:00N 52°28' E 004°35'0 0.8
2017-Jul-14 15:30N 52°28' E 004°35'0 0.0
2017-Jul-14 14:59N 52°28' E 004°35'0 0.0
2017-Jul-14 14:23N 52°28' E 004°35'0 0.0
2017-Jul-14 13:59N 52°28' E 004°35'0 0.0
2017-Jul-14 13:29N 52°28' E 004°35'0 0.0
2017-Jul-14 12:59N 52°28' E 004°35'0 0.0
2017-Jul-14 12:29N 52°28' E 004°35'0 0.0
2017-Jul-14 11:59N 52°28' E 004°35'0 0.0
2017-Jul-14 11:29N 52°28' E 004°35'0 0.0
2017-Jul-14 10:59N 52°28' E 004°35'0 0.0
2017-Jul-14 10:29N 52°28' E 004°35'0 0.0
2017-Jul-14 09:59N 52°28' E 004°35'0 0.0
2017-Jul-14 09:29N 52°28' E 004°35'0 0.0
2017-Jul-14 08:59N 52°28' E 004°35'0 0.0
2017-Jul-14 08:29N 52°28' E 004°35'0 0.0
2017-Jul-14 07:59N 52°28' E 004°35'0 0.3
2017-Jul-14 07:30N 52°28' E 004°35'611.9
2017-Jul-14 07:00N 52°30' E 004°26'714.1
2017-Jul-14 06:30N 52°35' E 004°18'714.2
2017-Jul-14 06:00N 52°40' E 004°09'714.3
2017-Jul-14 05:30N 52°44' E 003°60'714.3
2017-Jul-14 05:00N 52°49' E 003°51'14118.1
2017-Jul-13 21:15N 54°15' E 000°43'418.9
2017-Jul-13 21:00N 54°17' E 000°36'918.5
2017-Jul-13 20:30N 54°22' E 000°23'918.7
2017-Jul-13 20:01N 54°27' E 000°09'918.8
2017-Jul-13 19:30N 54°32' W 000°04'1019.3
2017-Jul-13 19:01N 54°37' W 000°18'2119.2
2017-Jul-13 17:54N 54°48' W 000°50'719.0
2017-Jul-13 17:30N 54°52' W 001°01'1019.0
2017-Jul-13 17:00N 54°58' W 001°14'714.4
2017-Jul-13 16:30N 55°00' W 001°26'1 2.3
2017-Jul-13 16:00N 54°59' W 001°27'0 0.0
2017-Jul-13 15:30N 54°59' W 001°27'0 0.0
2017-Jul-13 15:00N 54°59' W 001°27'0 0.0
2017-Jul-13 14:29N 54°59' W 001°27'0 0.0
2017-Jul-13 13:58N 54°59' W 001°27'0 0.0
2017-Jul-13 13:31N 54°59' W 001°27'0 0.0
2017-Jul-13 13:00N 54°59' W 001°27'0 0.0
2017-Jul-13 12:27N 54°59' W 001°27'0 0.0
2017-Jul-13 11:54N 54°59' W 001°27'0 0.0
2017-Jul-13 11:27N 54°59' W 001°27'0 0.0
2017-Jul-13 10:57N 54°59' W 001°27'0 0.0
2017-Jul-13 10:24N 54°59' W 001°27'0 0.0
2017-Jul-13 09:57N 54°59' W 001°27'0 0.0
2017-Jul-13 09:27N 54°59' W 001°27'0 0.0
2017-Jul-13 08:57N 54°59' W 001°27'0 0.0
2017-Jul-13 08:30N 54°59' W 001°27'0 0.8
2017-Jul-13 08:00N 54°60' W 001°27'4 8.0
2017-Jul-13 07:30N 55°00' W 001°20'612.8
2017-Jul-13 07:00N 54°56' W 001°11'815.6
2017-Jul-13 06:30N 54°52' W 000°59'816.7
2017-Jul-13 06:00N 54°48' W 000°47'816.4
2017-Jul-13 05:30N 54°43' W 000°35'916.6
2017-Jul-13 04:57N 54°38' W 000°21'716.9
2017-Jul-13 04:30N 54°35' W 000°10'917.3
2017-Jul-13 04:00N 54°30' E 000°02'917.7
2017-Jul-13 03:30N 54°25' E 000°15'917.9
2017-Jul-13 03:00N 54°20' E 000°28'918.4
2017-Jul-13 02:30N 54°16' E 000°41'918.9
2017-Jul-13 02:00N 54°10' E 000°55'918.9
2017-Jul-13 01:30N 54°05' E 001°08'1018.8
2017-Jul-13 01:00N 54°00' E 001°22'  
Track history (hours):
 
Tides and Currents Weather Stations Pressure Air Temp Water Temp Dewpoint Dewpoint Depression Visibility Wind Speed Wind Dir Waves Ship Positions

King of Scandinavia

Ship's website: http://www.dfds.co.uk/DSW/EN/OnBoard/na/KING.htm

Last reported at 2017-Jul-22 17:45 UTC. Time now 2017-Jul-22 18:28 UTC.
Position N 52°50' E 003°52'.

Length 166 m; beam 27.6 m; draft 6.2 m.

Type: Ship. MMSI: 220449000.

Date/timePositionNaut miles runAvg speedWind from/ knotsBaromVisibWave heightAir tempDewpointWater temp
2017-Jul-22 17:45N 52°50' E 003°52'415.1
2017-Jul-22 17:30N 52°48' E 003°57'815.5
2017-Jul-22 17:00N 52°43' E 004°07'815.9
2017-Jul-22 16:30N 52°37' E 004°16'816.2
2017-Jul-22 16:00N 52°31' E 004°26'612.9
2017-Jul-22 15:30N 52°28' E 004°34'0 0.7
2017-Jul-22 15:00N 52°28' E 004°35'0 0.0
2017-Jul-22 13:59N 52°28' E 004°35'0 0.0
2017-Jul-22 13:29N 52°28' E 004°35'0 0.0
2017-Jul-22 12:59N 52°28' E 004°35'0 0.0
2017-Jul-22 12:29N 52°28' E 004°35'0 0.0
2017-Jul-22 11:59N 52°28' E 004°35'0 0.0
2017-Jul-22 11:29N 52°28' E 004°35'0 0.0
2017-Jul-22 10:59N 52°28' E 004°35'0 0.0
2017-Jul-22 10:29N 52°28' E 004°35'0 0.0
2017-Jul-22 09:59N 52°28' E 004°35'0 0.0
2017-Jul-22 09:29N 52°28' E 004°35'0 0.0
2017-Jul-22 08:59N 52°28' E 004°35'0 0.0
2017-Jul-22 08:29N 52°28' E 004°35'0 0.0
2017-Jul-22 07:59N 52°28' E 004°35'0 0.3
2017-Jul-22 07:31N 52°28' E 004°35'511.0
2017-Jul-22 07:00N 52°30' E 004°26'816.5
2017-Jul-22 06:30N 52°36' E 004°17'917.5
2017-Jul-22 06:00N 52°42' E 004°07'816.6
2017-Jul-22 05:30N 52°47' E 003°56'917.7
2017-Jul-22 05:00N 52°52' E 003°44'918.9
2017-Jul-22 04:30N 52°59' E 003°34'1019.0
2017-Jul-22 04:00N 53°05' E 003°21'6018.0
2017-Jul-22 00:41N 53°44' E 002°05'317.5
2017-Jul-22 00:30N 53°46' E 002°01'1017.5
2017-Jul-21 23:55N 53°51' E 001°46'817.4
2017-Jul-21 23:28N 53°55' E 001°35'1117.2
2017-Jul-21 22:51N 54°01' E 001°19'616.9
2017-Jul-21 22:30N 54°04' E 001°11'816.9
2017-Jul-21 22:00N 54°09' E 000°59'816.9
2017-Jul-21 21:30N 54°13' E 000°47'816.9
2017-Jul-21 21:00N 54°18' E 000°35'917.1
2017-Jul-21 20:30N 54°22' E 000°23'816.9
2017-Jul-21 20:00N 54°27' E 000°10'816.9
2017-Jul-21 19:30N 54°32' W 000°02'917.1
2017-Jul-21 19:00N 54°36' W 000°14'917.3
2017-Jul-21 18:30N 54°41' W 000°27'1017.7
2017-Jul-21 17:56N 54°46' W 000°42'818.0
2017-Jul-21 17:30N 54°50' W 000°53'918.2
2017-Jul-21 17:00N 54°55' W 001°07'918.1
2017-Jul-21 16:30N 54°60' W 001°20'4 7.8
2017-Jul-21 16:01N 54°59' W 001°27'0 0.2
2017-Jul-21 15:30N 54°59' W 001°27'0 0.0
2017-Jul-21 14:59N 54°59' W 001°27'0 0.0
2017-Jul-21 14:29N 54°59' W 001°27'0 0.0
2017-Jul-21 13:56N 54°59' W 001°27'0 0.0
2017-Jul-21 13:29N 54°59' W 001°27'0 0.0
2017-Jul-21 12:59N 54°59' W 001°27'0 0.0
2017-Jul-21 12:29N 54°59' W 001°27'0 0.0
2017-Jul-21 11:59N 54°59' W 001°27'0 0.0
2017-Jul-21 11:26N 54°59' W 001°27'0 0.0
2017-Jul-21 10:59N 54°59' W 001°27'0 0.0
2017-Jul-21 10:29N 54°59' W 001°27'0 0.0
2017-Jul-21 09:59N 54°59' W 001°27'0 0.0
2017-Jul-21 09:30N 54°59' W 001°27'0 0.0
2017-Jul-21 08:59N 54°59' W 001°27'0 0.0
2017-Jul-21 08:31N 54°59' W 001°27'0 0.1
2017-Jul-21 08:00N 54°59' W 001°27'4 8.0
2017-Jul-21 07:31N 55°00' W 001°20'714.9
2017-Jul-21 07:01N 54°56' W 001°10'815.2
2017-Jul-21 06:30N 54°51' W 000°59'815.9
2017-Jul-21 06:00N 54°47' W 000°47'1517.5
2017-Jul-21 05:07N 54°39' W 000°24'317.3
2017-Jul-21 04:58N 54°38' W 000°20'817.0
2017-Jul-21 04:30N 54°34' W 000°09'817.0
2017-Jul-21 04:00N 54°29' E 000°04'917.1
2017-Jul-21 03:30N 54°25' E 000°16'917.3
2017-Jul-21 03:00N 54°20' E 000°29'917.1
2017-Jul-21 02:30N 54°15' E 000°41'1117.0
2017-Jul-21 01:50N 54°09' E 000°57'15017.2
2017-Jul-20 17:05N 52°37' E 004°16'114.2
2017-Jul-20 17:00N 52°36' E 004°17'714.5
2017-Jul-20 16:30N 52°31' E 004°26'612.5
2017-Jul-20 16:00N 52°28' E 004°35'0 0.4
2017-Jul-20 15:30N 52°28' E 004°35'0 0.0
2017-Jul-20 15:00N 52°28' E 004°35'0 0.0
2017-Jul-20 13:58N 52°28' E 004°35'0 0.0
2017-Jul-20 13:28N 52°28' E 004°35'0 0.0
2017-Jul-20 12:58N 52°28' E 004°35'0 0.0
2017-Jul-20 12:28N 52°28' E 004°35'0 0.0
2017-Jul-20 11:55N 52°28' E 004°35'0 0.0
2017-Jul-20 11:25N 52°28' E 004°35'0 0.0
2017-Jul-20 10:58N 52°28' E 004°35'0 0.0
2017-Jul-20 10:28N 52°28' E 004°35'0 0.0
2017-Jul-20 09:58N 52°28' E 004°35'0 0.0
2017-Jul-20 09:28N 52°28' E 004°35'0 0.0
2017-Jul-20 08:58N 52°28' E 004°35'0 0.0
2017-Jul-20 08:25N 52°28' E 004°35'0 0.0
2017-Jul-20 07:55N 52°28' E 004°35'0 0.4
2017-Jul-20 07:30N 52°28' E 004°35'4 8.3
2017-Jul-20 07:00N 52°29' E 004°28'713.3
2017-Jul-20 06:30N 52°34' E 004°20'713.4
2017-Jul-20 06:00N 52°38' E 004°12'713.8
2017-Jul-20 05:29N 52°43' E 004°03'714.7
2017-Jul-20 05:00N 52°47' E 003°54'814.9
2017-Jul-20 04:28N 52°53' E 003°45'1015.1
2017-Jul-20 03:48N 52°60' E 003°33'13518.6
2017-Jul-19 20:33N 54°20' E 000°29'118.0
2017-Jul-19 20:29N 54°20' E 000°28'918.2
2017-Jul-19 20:00N 54°25' E 000°15'918.0
2017-Jul-19 19:30N 54°30' E 000°02'918.1
2017-Jul-19 19:00N 54°35' W 000°11'918.0
2017-Jul-19 18:30N 54°39' W 000°25'1618.0
2017-Jul-19 17:38N 54°48' W 000°48'218.1
2017-Jul-19 17:30N 54°49' W 000°51'918.2
2017-Jul-19 17:00N 54°54' W 001°04'918.2
2017-Jul-19 16:30N 54°59' W 001°18'510.7
2017-Jul-19 16:00N 54°60' W 001°27'1 1.0
2017-Jul-19 15:25N 54°59' W 001°27'0 0.0
2017-Jul-19 14:52N 54°59' W 001°27'0 0.0
2017-Jul-19 14:25N 54°59' W 001°27'0 0.0
2017-Jul-19 13:40N 54°59' W 001°27'0 0.0
2017-Jul-19 13:28N 54°59' W 001°27'0 0.0
2017-Jul-19 12:58N 54°59' W 001°27'0 0.0
2017-Jul-19 12:28N 54°59' W 001°27'0 0.0
2017-Jul-19 11:58N 54°59' W 001°27'0 0.0
2017-Jul-19 11:28N 54°59' W 001°27'0 0.0
2017-Jul-19 10:58N 54°59' W 001°27'0 0.0
2017-Jul-19 10:28N 54°59' W 001°27'0 0.0
2017-Jul-19 10:01N 54°59' W 001°27'0 0.0
2017-Jul-19 09:31N 54°59' W 001°27'0 0.0
2017-Jul-19 09:01N 54°59' W 001°27'0 0.0
2017-Jul-19 08:30N 54°59' W 001°27'1 1.6
2017-Jul-19 08:00N 55°00' W 001°27'713.1
2017-Jul-19 07:31N 54°59' W 001°16'917.3
2017-Jul-19 07:01N 54°54' W 001°03'917.5
2017-Jul-19 06:31N 54°49' W 000°50'2217.8
2017-Jul-19 05:16N 54°37' W 000°17'517.9
2017-Jul-19 05:00N 54°35' W 000°11'918.1
2017-Jul-19 04:30N 54°30' E 000°02'918.2
2017-Jul-19 04:01N 54°25' E 000°15'918.3
2017-Jul-19 03:30N 54°20' E 000°29'12916.3
2017-Jul-18 19:35N 53°04' E 003°24'216.0
2017-Jul-18 19:29N 53°03' E 003°26'715.9
2017-Jul-18 19:01N 52°58' E 003°35'815.6
2017-Jul-18 18:30N 52°52' E 003°45'815.4
2017-Jul-18 18:00N 52°47' E 003°55'815.2
2017-Jul-18 17:30N 52°43' E 004°04'815.3
2017-Jul-18 17:01N 52°38' E 004°14'815.1
2017-Jul-18 16:31N 52°32' E 004°23'714.6
2017-Jul-18 16:01N 52°28' E 004°32'2 3.3
2017-Jul-18 15:30N 52°28' E 004°35'0 0.0
2017-Jul-18 15:00N 52°28' E 004°35'0 0.0
2017-Jul-18 14:00N 52°28' E 004°35'0 0.0
2017-Jul-18 13:00N 52°28' E 004°35'0 0.0
2017-Jul-18 12:30N 52°28' E 004°35'0 0.0
2017-Jul-18 12:00N 52°28' E 004°35'0 0.0
2017-Jul-18 11:30N 52°28' E 004°35'0 0.0
2017-Jul-18 11:00N 52°28' E 004°35'0 0.0
2017-Jul-18 10:30N 52°28' E 004°35'0 0.0
2017-Jul-18 09:57N 52°28' E 004°35'0 0.0
2017-Jul-18 09:30N 52°28' E 004°35'0 0.0
2017-Jul-18 08:57N 52°28' E 004°35'0 0.0
2017-Jul-18 08:30N 52°28' E 004°35'0 0.0
2017-Jul-18 08:00N 52°28' E 004°35'0 0.4
2017-Jul-18 07:31N 52°28' E 004°35'611.7
2017-Jul-18 07:00N 52°30' E 004°26'714.8
2017-Jul-18 06:30N 52°35' E 004°18'714.4
2017-Jul-18 06:00N 52°40' E 004°08'815.2
2017-Jul-18 05:30N 52°45' E 003°59'815.5
2017-Jul-18 05:00N 52°51' E 003°50'815.5
2017-Jul-18 04:30N 52°55' E 003°40'815.9
2017-Jul-18 04:00N 53°00' E 003°30'917.7
2017-Jul-18 03:30N 53°06' E 003°19'1017.9
2017-Jul-18 02:56N 53°13' E 003°05'818.2
2017-Jul-18 02:29N 53°18' E 002°55'918.3
2017-Jul-18 01:58N 53°24' E 002°43'1418.6
2017-Jul-18 01:13N 53°34' E 002°25'418.7
2017-Jul-18 01:00N 53°36' E 002°20'1018.6
2017-Jul-18 00:29N 53°42' E 002°08'1018.6
2017-Jul-17 23:57N 53°48' E 001°54'818.5
2017-Jul-17 23:29N 53°52' E 001°42'1218.4
2017-Jul-17 22:51N 53°59' E 001°25'618.2
2017-Jul-17 22:31N 54°02' E 001°16'917.9
2017-Jul-17 22:00N 54°07' E 001°03'1117.8
2017-Jul-17 21:23N 54°13' E 000°47'718.0
2017-Jul-17 21:01N 54°17' E 000°38'917.8
2017-Jul-17 20:30N 54°21' E 000°25'917.8
2017-Jul-17 20:00N 54°26' E 000°12'917.7
2017-Jul-17 19:30N 54°31' W 000°01'917.7
2017-Jul-17 19:00N 54°36' W 000°13'917.5
2017-Jul-17 18:30N 54°41' W 000°26'1117.3
2017-Jul-17 17:53N 54°47' W 000°42'717.2
2017-Jul-17 17:30N 54°50' W 000°52'917.1
2017-Jul-17 17:00N 54°54' W 001°04'917.2
2017-Jul-17 16:30N 54°59' W 001°17'510.9
2017-Jul-17 16:00N 54°60' W 001°27'0 0.7
2017-Jul-17 15:23N 54°59' W 001°27'0 0.0
2017-Jul-17 14:53N 54°59' W 001°27'0 0.0
2017-Jul-17 14:20N 54°59' W 001°27'0 0.0
2017-Jul-17 13:56N 54°59' W 001°27'0 0.0
2017-Jul-17 13:23N 54°59' W 001°27'0 0.0
2017-Jul-17 12:56N 54°59' W 001°27'0 0.0
2017-Jul-17 12:26N 54°59' W 001°27'0 0.0
2017-Jul-17 11:56N 54°59' W 001°27'0 0.0
2017-Jul-17 11:26N 54°59' W 001°27'0 0.0
2017-Jul-17 10:59N 54°59' W 001°27'0 0.0
2017-Jul-17 10:29N 54°59' W 001°27'0 0.0
2017-Jul-17 09:59N 54°59' W 001°27'0 0.0
2017-Jul-17 09:30N 54°59' W 001°27'0 0.0
2017-Jul-17 09:00N 54°59' W 001°27'0 0.0
2017-Jul-17 08:29N 54°59' W 001°27'0 0.6
2017-Jul-17 08:00N 54°60' W 001°27'5 9.6
2017-Jul-17 07:31N 54°60' W 001°18'816.0
2017-Jul-17 07:01N 54°55' W 001°07'816.3
2017-Jul-17 06:30N 54°52' W 000°54'816.3
2017-Jul-17 06:01N 54°47' W 000°42'1316.6
2017-Jul-17 05:12N 54°39' W 000°23'416.1
2017-Jul-17 04:58N 54°37' W 000°18'817.5
2017-Jul-17 04:31N 54°33' W 000°06'917.9
2017-Jul-17 04:01N 54°28' E 000°07'918.3
2017-Jul-17 03:31N 54°23' E 000°20'918.1
2017-Jul-17 03:00N 54°18' E 000°33'918.2
2017-Jul-17 02:31N 54°14' E 000°46'917.6
2017-Jul-17 02:01N 54°09' E 000°59'4516.8
2017-Jul-16 23:18N 53°44' E 002°04'3316.8
2017-Jul-16 21:22N 53°23' E 002°46'5115.9
2017-Jul-16 18:08N 52°50' E 003°51'215.7
2017-Jul-16 18:00N 52°48' E 003°53'815.4
2017-Jul-16 17:30N 52°43' E 004°02'815.5
2017-Jul-16 17:00N 52°38' E 004°12'815.4
2017-Jul-16 16:30N 52°33' E 004°22'815.1
2017-Jul-16 16:01N 52°28' E 004°31'2 4.9
2017-Jul-16 15:31N 52°28' E 004°35'0 0.0
2017-Jul-16 15:01N 52°28' E 004°35'0 0.0
2017-Jul-16 14:28N 52°28' E 004°35'0 0.0
2017-Jul-16 14:01N 52°28' E 004°35'0 0.0
2017-Jul-16 13:31N 52°28' E 004°35'0 0.0
2017-Jul-16 12:58N 52°28' E 004°35'0 0.0
2017-Jul-16 12:28N 52°28' E 004°35'0 0.0
2017-Jul-16 11:58N 52°28' E 004°35'0 0.0
2017-Jul-16 11:28N 52°28' E 004°35'0 0.0
2017-Jul-16 10:58N 52°28' E 004°35'0 0.0
2017-Jul-16 10:31N 52°28' E 004°35'0 0.0
2017-Jul-16 09:58N 52°28' E 004°35'0 0.0
2017-Jul-16 09:28N 52°28' E 004°35'0 0.0
2017-Jul-16 08:58N 52°28' E 004°35'0 0.0
2017-Jul-16 08:31N 52°28' E 004°35'0 0.0
2017-Jul-16 08:01N 52°28' E 004°35'0 0.2
2017-Jul-16 07:30N 52°28' E 004°35'5 9.4
2017-Jul-16 07:00N 52°29' E 004°27'714.3
2017-Jul-16 06:30N 52°34' E 004°20'714.5
2017-Jul-16 06:00N 52°40' E 004°11'714.9
2017-Jul-16 05:30N 52°44' E 004°02'815.1
2017-Jul-16 05:00N 52°49' E 003°52'14617.7
2017-Jul-15 20:44N 54°17' E 000°35'418.6
2017-Jul-15 20:30N 54°19' E 000°29'918.6
2017-Jul-15 20:00N 54°24' E 000°16'918.7
2017-Jul-15 19:30N 54°29' E 000°02'918.6
2017-Jul-15 19:00N 54°34' W 000°11'918.5
2017-Jul-15 18:30N 54°40' W 000°25'1618.2
2017-Jul-15 17:38N 54°48' W 000°48'217.8
2017-Jul-15 17:30N 54°49' W 000°52'917.8
2017-Jul-15 17:00N 54°54' W 001°04'917.9
2017-Jul-15 16:31N 54°59' W 001°17'510.9
2017-Jul-15 16:00N 54°60' W 001°27'0 0.8
2017-Jul-15 15:30N 54°59' W 001°27'0 0.0
2017-Jul-15 15:00N 54°59' W 001°27'0 0.0
2017-Jul-15 13:52N 54°59' W 001°27'0 0.0
2017-Jul-15 13:21N 54°59' W 001°27'0 0.0
2017-Jul-15 12:54N 54°59' W 001°27'0 0.0
2017-Jul-15 12:24N 54°59' W 001°27'0 0.0
2017-Jul-15 11:54N 54°59' W 001°27'0 0.0
2017-Jul-15 11:24N 54°59' W 001°27'0 0.0
2017-Jul-15 10:57N 54°59' W 001°27'0 0.0
2017-Jul-15 10:27N 54°59' W 001°27'0 0.0
2017-Jul-15 09:57N 54°59' W 001°27'0 0.0
2017-Jul-15 09:27N 54°59' W 001°27'0 0.0
2017-Jul-15 08:54N 54°59' W 001°27'0 0.0
2017-Jul-15 08:30N 54°59' W 001°27'0 0.7
2017-Jul-15 08:00N 54°60' W 001°27'5 9.3
2017-Jul-15 07:30N 54°60' W 001°19'917.3
2017-Jul-15 07:00N 54°55' W 001°05'917.2
2017-Jul-15 06:30N 54°51' W 000°53'917.1
2017-Jul-15 06:00N 54°46' W 000°41'1317.1
2017-Jul-15 05:14N 54°38' W 000°22'417.3
2017-Jul-15 05:00N 54°36' W 000°16'917.5
2017-Jul-15 04:29N 54°31' W 000°03'817.8
2017-Jul-15 04:00N 54°27' E 000°09'917.9
2017-Jul-15 03:30N 54°22' E 000°22'918.0
2017-Jul-15 03:00N 54°18' E 000°36'14917.0
2017-Jul-14 18:14N 52°49' E 003°57'314.6
2017-Jul-14 18:00N 52°46' E 004°01'714.7
2017-Jul-14 17:30N 52°41' E 004°09'714.5
2017-Jul-14 17:01N 52°36' E 004°17'714.4
2017-Jul-14 16:30N 52°31' E 004°26'612.2
2017-Jul-14 16:00N 52°28' E 004°35'0 0.8
2017-Jul-14 15:30N 52°28' E 004°35'0 0.0
2017-Jul-14 14:59N 52°28' E 004°35'0 0.0
2017-Jul-14 14:23N 52°28' E 004°35'0 0.0
2017-Jul-14 13:59N 52°28' E 004°35'0 0.0
2017-Jul-14 13:29N 52°28' E 004°35'0 0.0
2017-Jul-14 12:59N 52°28' E 004°35'0 0.0
2017-Jul-14 12:29N 52°28' E 004°35'0 0.0
2017-Jul-14 11:59N 52°28' E 004°35'0 0.0
2017-Jul-14 11:29N 52°28' E 004°35'0 0.0
2017-Jul-14 10:59N 52°28' E 004°35'0 0.0
2017-Jul-14 10:29N 52°28' E 004°35'0 0.0
2017-Jul-14 09:59N 52°28' E 004°35'0 0.0
2017-Jul-14 09:29N 52°28' E 004°35'0 0.0
2017-Jul-14 08:59N 52°28' E 004°35'0 0.0
2017-Jul-14 08:29N 52°28' E 004°35'0 0.0
2017-Jul-14 07:59N 52°28' E 004°35'0 0.3
2017-Jul-14 07:30N 52°28' E 004°35'611.9
2017-Jul-14 07:00N 52°30' E 004°26'714.1
2017-Jul-14 06:30N 52°35' E 004°18'714.2
2017-Jul-14 06:00N 52°40' E 004°09'714.3
2017-Jul-14 05:30N 52°44' E 003°60'714.3
2017-Jul-14 05:00N 52°49' E 003°51'14118.1
2017-Jul-13 21:15N 54°15' E 000°43'418.9
2017-Jul-13 21:00N 54°17' E 000°36'918.5
2017-Jul-13 20:30N 54°22' E 000°23'918.7
2017-Jul-13 20:01N 54°27' E 000°09'918.8
2017-Jul-13 19:30N 54°32' W 000°04'1019.3
2017-Jul-13 19:01N 54°37' W 000°18'2119.2
2017-Jul-13 17:54N 54°48' W 000°50'719.0
2017-Jul-13 17:30N 54°52' W 001°01'1019.0
2017-Jul-13 17:00N 54°58' W 001°14'714.4
2017-Jul-13 16:30N 55°00' W 001°26'1 2.3
2017-Jul-13 16:00N 54°59' W 001°27'0 0.0
2017-Jul-13 15:30N 54°59' W 001°27'0 0.0
2017-Jul-13 15:00N 54°59' W 001°27'0 0.0
2017-Jul-13 14:29N 54°59' W 001°27'0 0.0
2017-Jul-13 13:58N 54°59' W 001°27'0 0.0
2017-Jul-13 13:31N 54°59' W 001°27'0 0.0
2017-Jul-13 13:00N 54°59' W 001°27'0 0.0
2017-Jul-13 12:27N 54°59' W 001°27'0 0.0
2017-Jul-13 11:54N 54°59' W 001°27'0 0.0
2017-Jul-13 11:27N 54°59' W 001°27'0 0.0
2017-Jul-13 10:57N 54°59' W 001°27'0 0.0
2017-Jul-13 10:24N 54°59' W 001°27'0 0.0
2017-Jul-13 09:57N 54°59' W 001°27'0 0.0
2017-Jul-13 09:27N 54°59' W 001°27'0 0.0
2017-Jul-13 08:57N 54°59' W 001°27'0 0.0
2017-Jul-13 08:30N 54°59' W 001°27'0 0.8
2017-Jul-13 08:00N 54°60' W 001°27'4 8.0
2017-Jul-13 07:30N 55°00' W 001°20'612.8
2017-Jul-13 07:00N 54°56' W 001°11'815.6
2017-Jul-13 06:30N 54°52' W 000°59'816.7
2017-Jul-13 06:00N 54°48' W 000°47'816.4
2017-Jul-13 05:30N 54°43' W 000°35'916.6
2017-Jul-13 04:57N 54°38' W 000°21'716.9
2017-Jul-13 04:30N 54°35' W 000°10'917.3
2017-Jul-13 04:00N 54°30' E 000°02'917.7
2017-Jul-13 03:30N 54°25' E 000°15'917.9
2017-Jul-13 03:00N 54°20' E 000°28'918.4
2017-Jul-13 02:30N 54°16' E 000°41'918.9
2017-Jul-13 02:00N 54°10' E 000°55'918.9
2017-Jul-13 01:30N 54°05' E 001°08'1018.8
2017-Jul-13 01:00N 54°00' E 001°22'  

Dump ship's entire track history